sensor_id;sensor_type;location;lat;lon;timestamp;pressure;altitude;pressure_sealevel;temperature;humidity
17362;BME280;8798;51.938;4.348;2022-11-03T00:01:33;101352.84;;;14.24;66.14
17362;BME280;8798;51.938;4.348;2022-11-03T00:04:01;101346.59;;;14.23;66.07
17362;BME280;8798;51.938;4.348;2022-11-03T00:06:29;101338.63;;;14.22;66.27
17362;BME280;8798;51.938;4.348;2022-11-03T00:08:58;101330.53;;;14.22;66.42
17362;BME280;8798;51.938;4.348;2022-11-03T00:11:26;101333.41;;;14.20;66.27
17362;BME280;8798;51.938;4.348;2022-11-03T00:13:55;101327.19;;;14.19;66.40
17362;BME280;8798;51.938;4.348;2022-11-03T00:16:23;101321.78;;;14.19;66.55
17362;BME280;8798;51.938;4.348;2022-11-03T00:18:51;101320.91;;;14.19;66.60
17362;BME280;8798;51.938;4.348;2022-11-03T00:21:19;101318.38;;;14.17;66.61
17362;BME280;8798;51.938;4.348;2022-11-03T00:23:47;101310.09;;;14.19;66.54
17362;BME280;8798;51.938;4.348;2022-11-03T00:26:16;101319.22;;;14.18;66.53
17362;BME280;8798;51.938;4.348;2022-11-03T00:28:45;101316.38;;;14.19;66.61
17362;BME280;8798;51.938;4.348;2022-11-03T00:31:17;101319.91;;;14.20;66.56
17362;BME280;8798;51.938;4.348;2022-11-03T00:33:45;101318.88;;;14.21;66.81
17362;BME280;8798;51.938;4.348;2022-11-03T00:36:15;101330.53;;;14.22;66.56
17362;BME280;8798;51.938;4.348;2022-11-03T00:38:44;101340.16;;;14.24;66.89
17362;BME280;8798;51.938;4.348;2022-11-03T00:41:12;101332.94;;;14.25;66.71
17362;BME280;8798;51.938;4.348;2022-11-03T00:43:41;101338.16;;;14.26;66.68
17362;BME280;8798;51.938;4.348;2022-11-03T00:46:09;101340.16;;;14.24;66.96
17362;BME280;8798;51.938;4.348;2022-11-03T00:48:38;101334.63;;;14.26;66.64
17362;BME280;8798;51.938;4.348;2022-11-03T00:51:09;101325.81;;;14.24;66.91
17362;BME280;8798;51.938;4.348;2022-11-03T00:53:38;101319.72;;;14.22;66.92
17362;BME280;8798;51.938;4.348;2022-11-03T00:56:08;101315.34;;;14.20;67.08
17362;BME280;8798;51.938;4.348;2022-11-03T00:58:38;101312.63;;;14.20;67.13
17362;BME280;8798;51.938;4.348;2022-11-03T01:01:08;101309.25;;;14.18;67.02
17362;BME280;8798;51.938;4.348;2022-11-03T01:03:39;101303.84;;;14.18;67.10
17362;BME280;8798;51.938;4.348;2022-11-03T01:06:08;101304.88;;;14.17;67.11
17362;BME280;8798;51.938;4.348;2022-11-03T01:08:55;101296.59;;;14.19;67.41
17362;BME280;8798;51.938;4.348;2022-11-03T01:11:25;101298.44;;;14.18;67.19
17362;BME280;8798;51.938;4.348;2022-11-03T01:14:14;101295.75;;;14.18;67.25
17362;BME280;8798;51.938;4.348;2022-11-03T01:16:42;101306.56;;;14.18;67.33
17362;BME280;8798;51.938;4.348;2022-11-03T01:19:11;101294.91;;;14.18;67.15
17362;BME280;8798;51.938;4.348;2022-11-03T01:21:39;101297.59;;;14.18;67.23
17362;BME280;8798;51.938;4.348;2022-11-03T01:24:06;101293.03;;;14.18;67.51
17362;BME280;8798;51.938;4.348;2022-11-03T01:26:34;101289.50;;;14.18;67.45
17362;BME280;8798;51.938;4.348;2022-11-03T01:29:02;101292.06;;;14.19;67.40
17362;BME280;8798;51.938;4.348;2022-11-03T01:31:31;101301.84;;;14.20;67.61
17362;BME280;8798;51.938;4.348;2022-11-03T01:33:59;101296.44;;;14.20;67.57
17362;BME280;8798;51.938;4.348;2022-11-03T01:36:28;101294.75;;;14.19;67.66
17362;BME280;8798;51.938;4.348;2022-11-03T01:38:56;101294.75;;;14.19;67.62
17362;BME280;8798;51.938;4.348;2022-11-03T01:41:25;101288.47;;;14.19;67.88
17362;BME280;8798;51.938;4.348;2022-11-03T01:44:23;101283.25;;;14.17;67.75
17362;BME280;8798;51.938;4.348;2022-11-03T01:46:54;101272.59;;;14.16;67.68
17362;BME280;8798;51.938;4.348;2022-11-03T01:49:27;101271.59;;;14.17;67.65
17362;BME280;8798;51.938;4.348;2022-11-03T01:52:02;101280.38;;;14.19;67.91
17362;BME280;8798;51.938;4.348;2022-11-03T01:54:31;101284.78;;;14.20;67.80
17362;BME280;8798;51.938;4.348;2022-11-03T01:57:03;101281.91;;;14.22;67.97
17362;BME280;8798;51.938;4.348;2022-11-03T01:59:33;101292.69;;;14.22;68.18
17362;BME280;8798;51.938;4.348;2022-11-03T02:02:01;101287.97;;;14.24;68.11
17362;BME280;8798;51.938;4.348;2022-11-03T02:04:31;101296.09;;;14.24;68.15
17362;BME280;8798;51.938;4.348;2022-11-03T02:07:10;101285.28;;;14.24;68.18
17362;BME280;8798;51.938;4.348;2022-11-03T02:09:39;101282.56;;;14.24;68.10
17362;BME280;8798;51.938;4.348;2022-11-03T02:12:07;101285.28;;;14.24;68.24
17362;BME280;8798;51.938;4.348;2022-11-03T02:14:40;101292.41;;;14.25;68.15
17362;BME280;8798;51.938;4.348;2022-11-03T02:17:11;101302.88;;;14.28;68.27
17362;BME280;8798;51.938;4.348;2022-11-03T02:19:42;101307.09;;;14.30;68.49
17362;BME280;8798;51.938;4.348;2022-11-03T02:22:31;101326.53;;;14.34;68.24
17362;BME280;8798;51.938;4.348;2022-11-03T02:25:10;101324.50;;;14.36;68.43
17362;BME280;8798;51.938;4.348;2022-11-03T02:27:42;101331.44;;;14.38;68.34
17362;BME280;8798;51.938;4.348;2022-11-03T02:30:10;101333.97;;;14.40;68.48
17362;BME280;8798;51.938;4.348;2022-11-03T02:32:45;101342.78;;;14.42;68.50
17362;BME280;8798;51.938;4.348;2022-11-03T02:35:21;101332.81;;;14.43;68.35
17362;BME280;8798;51.938;4.348;2022-11-03T02:37:53;101339.06;;;14.43;68.32
17362;BME280;8798;51.938;4.348;2022-11-03T02:40:25;101327.41;;;14.43;68.64
17362;BME280;8798;51.938;4.348;2022-11-03T02:42:58;101331.78;;;14.44;68.49
17362;BME280;8798;51.938;4.348;2022-11-03T02:45:27;101334.50;;;14.44;68.67
17362;BME280;8798;51.938;4.348;2022-11-03T02:47:57;101328.94;;;14.45;68.52
17362;BME280;8798;51.938;4.348;2022-11-03T02:50:27;101326.22;;;14.45;68.68
17362;BME280;8798;51.938;4.348;2022-11-03T02:52:55;101326.22;;;14.45;68.79
17362;BME280;8798;51.938;4.348;2022-11-03T02:55:30;101322.50;;;14.46;68.56
17362;BME280;8798;51.938;4.348;2022-11-03T02:58:06;101318.97;;;14.46;68.72
17362;BME280;8798;51.938;4.348;2022-11-03T03:00:44;101317.09;;;14.46;68.84
17362;BME280;8798;51.938;4.348;2022-11-03T03:03:17;101310.84;;;14.46;68.71
17362;BME280;8798;51.938;4.348;2022-11-03T03:05:49;101298.50;;;14.43;68.84
17362;BME280;8798;51.938;4.348;2022-11-03T03:08:20;101279.94;;;14.40;68.77
17362;BME280;8798;51.938;4.348;2022-11-03T03:10:49;101271.97;;;14.38;68.79
17362;BME280;8798;51.938;4.348;2022-11-03T03:13:20;101268.28;;;14.39;68.77
17362;BME280;8798;51.938;4.348;2022-11-03T03:15:59;101273.50;;;14.41;68.98
17362;BME280;8798;51.938;4.348;2022-11-03T03:18:41;101273.34;;;14.43;68.93
17362;BME280;8798;51.938;4.348;2022-11-03T03:21:16;101279.44;;;14.45;69.17
17362;BME280;8798;51.938;4.348;2022-11-03T03:23:49;101274.88;;;14.45;69.17
17362;BME280;8798;51.938;4.348;2022-11-03T03:26:21;101281.94;;;14.46;69.02
17362;BME280;8798;51.938;4.348;2022-11-03T03:28:54;101275.53;;;14.47;69.10
17362;BME280;8798;51.938;4.348;2022-11-03T03:31:25;101290.59;;;14.50;69.09
17362;BME280;8798;51.938;4.348;2022-11-03T03:33:55;101278.94;;;14.49;69.18
17362;BME280;8798;51.938;4.348;2022-11-03T03:36:37;101279.78;;;14.50;69.23
17362;BME280;8798;51.938;4.348;2022-11-03T03:39:10;101283.31;;;14.50;69.25
17362;BME280;8798;51.938;4.348;2022-11-03T03:41:39;101282.28;;;14.51;69.22
17362;BME280;8798;51.938;4.348;2022-11-03T03:44:09;101270.47;;;14.52;69.20
17362;BME280;8798;51.938;4.348;2022-11-03T03:46:41;101273.19;;;14.52;69.35
17362;BME280;8798;51.938;4.348;2022-11-03T03:49:10;101276.72;;;14.53;69.25
17362;BME280;8798;51.938;4.348;2022-11-03T03:51:40;101266.94;;;14.52;69.27
17362;BME280;8798;51.938;4.348;2022-11-03T03:54:08;101262.53;;;14.51;69.38
17362;BME280;8798;51.938;4.348;2022-11-03T03:56:40;101259.81;;;14.51;69.46
17362;BME280;8798;51.938;4.348;2022-11-03T03:59:10;101255.25;;;14.51;69.56
17362;BME280;8798;51.938;4.348;2022-11-03T04:01:38;101254.25;;;14.52;69.57
17362;BME280;8798;51.938;4.348;2022-11-03T04:04:06;101249.84;;;14.51;68.94
17362;BME280;8798;51.938;4.348;2022-11-03T04:06:33;101239.22;;;14.50;69.34
17362;BME280;8798;51.938;4.348;2022-11-03T04:09:01;101236.53;;;14.50;69.38
17362;BME280;8798;51.938;4.348;2022-11-03T04:11:29;101225.72;;;14.50;69.61
17362;BME280;8798;51.938;4.348;2022-11-03T04:14:20;101220.47;;;14.48;69.57
17362;BME280;8798;51.938;4.348;2022-11-03T04:17:15;101206.25;;;14.46;69.51
17362;BME280;8798;51.938;4.348;2022-11-03T04:20:03;101195.78;;;14.43;69.68
17362;BME280;8798;51.938;4.348;2022-11-03T04:22:48;101180.59;;;14.42;69.70
17362;BME280;8798;51.938;4.348;2022-11-03T04:25:16;101173.47;;;14.41;69.71
17362;BME280;8798;51.938;4.348;2022-11-03T04:27:44;101183.31;;;14.42;69.85
17362;BME280;8798;51.938;4.348;2022-11-03T04:30:15;101174.34;;;14.41;69.72
17362;BME280;8798;51.938;4.348;2022-11-03T04:32:44;101173.47;;;14.41;69.58
17362;BME280;8798;51.938;4.348;2022-11-03T04:35:15;101157.44;;;14.39;69.70
17362;BME280;8798;51.938;4.348;2022-11-03T04:37:43;101155.75;;;14.38;69.76
17362;BME280;8798;51.938;4.348;2022-11-03T04:40:15;101141.56;;;14.36;69.78
17362;BME280;8798;51.938;4.348;2022-11-03T04:42:43;101136.34;;;14.35;69.81
17362;BME280;8798;51.938;4.348;2022-11-03T04:45:21;101125.53;;;14.35;70.05
17362;BME280;8798;51.938;4.348;2022-11-03T04:47:50;101122.97;;;14.33;70.06
17362;BME280;8798;51.938;4.348;2022-11-03T04:50:20;101130.94;;;14.35;70.05
17362;BME280;8798;51.938;4.348;2022-11-03T04:52:50;101130.75;;;14.36;70.07
17362;BME280;8798;51.938;4.348;2022-11-03T04:55:22;101139.38;;;14.40;70.08
17362;BME280;8798;51.938;4.348;2022-11-03T04:57:59;101147.13;;;14.43;70.20
17362;BME280;8798;51.938;4.348;2022-11-03T05:00:30;101155.09;;;14.45;70.11
17362;BME280;8798;51.938;4.348;2022-11-03T05:02:58;101158.47;;;14.47;70.36
17362;BME280;8798;51.938;4.348;2022-11-03T05:05:26;101168.94;;;14.50;70.36
17362;BME280;8798;51.938;4.348;2022-11-03T05:07:56;101169.63;;;14.52;70.48
17362;BME280;8798;51.938;4.348;2022-11-03T05:10:27;101175.84;;;14.52;70.44
17362;BME280;8798;51.938;4.348;2022-11-03T05:12:55;101177.41;;;14.55;70.69
17362;BME280;8798;51.938;4.348;2022-11-03T05:15:30;101180.94;;;14.55;70.48
17362;BME280;8798;51.938;4.348;2022-11-03T05:17:59;101186.00;;;14.58;70.34
17362;BME280;8798;51.938;4.348;2022-11-03T05:20:33;101186.00;;;14.58;70.63
17362;BME280;8798;51.938;4.348;2022-11-03T05:23:03;101184.00;;;14.60;70.47
17362;BME280;8798;51.938;4.348;2022-11-03T05:25:37;101177.75;;;14.60;70.41
17362;BME280;8798;51.938;4.348;2022-11-03T05:28:18;101176.91;;;14.59;70.39
17362;BME280;8798;51.938;4.348;2022-11-03T05:30:48;101160.16;;;14.56;70.52
17362;BME280;8798;51.938;4.348;2022-11-03T05:33:22;101144.81;;;14.56;70.58
17362;BME280;8798;51.938;4.348;2022-11-03T05:35:51;101147.50;;;14.56;70.61
17362;BME280;8798;51.938;4.348;2022-11-03T05:38:21;101137.69;;;14.55;70.76
17362;BME280;8798;51.938;4.348;2022-11-03T05:40:50;101136.84;;;14.55;70.97
17362;BME280;8798;51.938;4.348;2022-11-03T05:43:19;101129.59;;;14.55;70.75
17362;BME280;8798;51.938;4.348;2022-11-03T05:45:50;101125.22;;;14.54;71.05
17362;BME280;8798;51.938;4.348;2022-11-03T05:48:26;101112.69;;;14.53;70.99
17362;BME280;8798;51.938;4.348;2022-11-03T05:50:56;101106.41;;;14.53;71.07
17362;BME280;8798;51.938;4.348;2022-11-03T05:53:28;101106.41;;;14.53;70.93
17362;BME280;8798;51.938;4.348;2022-11-03T05:55:58;101103.69;;;14.53;71.19
17362;BME280;8798;51.938;4.348;2022-11-03T05:58:30;101102.72;;;14.54;70.96
17362;BME280;8798;51.938;4.348;2022-11-03T06:01:03;101106.09;;;14.56;71.18
17362;BME280;8798;51.938;4.348;2022-11-03T06:03:33;101107.78;;;14.57;70.83
17362;BME280;8798;51.938;4.348;2022-11-03T06:06:12;101112.03;;;14.59;71.19
17362;BME280;8798;51.938;4.348;2022-11-03T06:08:42;101117.22;;;14.61;71.09
17362;BME280;8798;51.938;4.348;2022-11-03T06:11:20;101115.41;;;14.61;71.57
17362;BME280;8798;51.938;4.348;2022-11-03T06:13:49;101110.81;;;14.62;71.06
17362;BME280;8798;51.938;4.348;2022-11-03T06:16:35;101117.75;;;14.65;71.24
17362;BME280;8798;51.938;4.348;2022-11-03T06:19:33;101114.84;;;14.66;71.15
17362;BME280;8798;51.938;4.348;2022-11-03T06:22:06;101105.06;;;14.65;71.30
17362;BME280;8798;51.938;4.348;2022-11-03T06:24:37;101109.44;;;14.66;71.41
17362;BME280;8798;51.938;4.348;2022-11-03T06:27:08;101105.91;;;14.66;71.31
17362;BME280;8798;51.938;4.348;2022-11-03T06:29:36;101103.03;;;14.67;71.49
17362;BME280;8798;51.938;4.348;2022-11-03T06:32:09;101103.03;;;14.67;71.37
17362;BME280;8798;51.938;4.348;2022-11-03T06:34:41;101101.19;;;14.68;71.38
17362;BME280;8798;51.938;4.348;2022-11-03T06:37:19;101095.75;;;14.68;71.54
17362;BME280;8798;51.938;4.348;2022-11-03T06:39:48;101093.91;;;14.68;71.63
17362;BME280;8798;51.938;4.348;2022-11-03T06:42:20;101101.84;;;14.70;71.48
17362;BME280;8798;51.938;4.348;2022-11-03T06:44:54;101094.56;;;14.70;71.42
17362;BME280;8798;51.938;4.348;2022-11-03T06:47:24;101090.00;;;14.71;71.56
17362;BME280;8798;51.938;4.348;2022-11-03T06:49:54;101081.06;;;14.70;71.58
17362;BME280;8798;51.938;4.348;2022-11-03T06:52:25;101086.31;;;14.72;71.52
17362;BME280;8798;51.938;4.348;2022-11-03T06:55:00;101083.59;;;14.72;71.63
17362;BME280;8798;51.938;4.348;2022-11-03T06:57:33;101081.56;;;14.74;71.54
17362;BME280;8798;51.938;4.348;2022-11-03T07:00:08;101086.78;;;14.75;71.46
17362;BME280;8798;51.938;4.348;2022-11-03T07:03:06;101072.25;;;14.76;71.65
17362;BME280;8798;51.938;4.348;2022-11-03T07:05:36;101072.44;;;14.75;71.67
17362;BME280;8798;51.938;4.348;2022-11-03T07:08:15;101074.97;;;14.76;71.56
17362;BME280;8798;51.938;4.348;2022-11-03T07:10:45;101073.94;;;14.77;71.87
17362;BME280;8798;51.938;4.348;2022-11-03T07:13:17;101070.22;;;14.78;71.66
17362;BME280;8798;51.938;4.348;2022-11-03T07:15:45;101077.31;;;14.79;71.87
17362;BME280;8798;51.938;4.348;2022-11-03T07:18:18;101083.41;;;14.81;71.86
17362;BME280;8798;51.938;4.348;2022-11-03T07:20:48;101084.03;;;14.83;71.89
17362;BME280;8798;51.938;4.348;2022-11-03T07:23:19;101081.19;;;14.85;71.75
17362;BME280;8798;51.938;4.348;2022-11-03T07:25:52;101081.84;;;14.87;71.94
17362;BME280;8798;51.938;4.348;2022-11-03T07:28:22;101099.59;;;14.90;71.92
17362;BME280;8798;51.938;4.348;2022-11-03T07:30:51;101098.25;;;14.94;71.89
17362;BME280;8798;51.938;4.348;2022-11-03T07:33:23;101104.50;;;14.94;71.87
17362;BME280;8798;51.938;4.348;2022-11-03T07:35:53;101092.63;;;14.95;71.94
17362;BME280;8798;51.938;4.348;2022-11-03T07:38:44;101094.50;;;14.95;72.00
17362;BME280;8798;51.938;4.348;2022-11-03T07:41:16;101088.06;;;14.96;71.96
17362;BME280;8798;51.938;4.348;2022-11-03T07:43:48;101082.66;;;14.96;71.79
17362;BME280;8798;51.938;4.348;2022-11-03T07:46:19;101076.41;;;14.95;72.00
17362;BME280;8798;51.938;4.348;2022-11-03T07:48:50;101067.47;;;14.95;72.04
17362;BME280;8798;51.938;4.348;2022-11-03T07:51:21;101071.00;;;14.95;72.03
17362;BME280;8798;51.938;4.348;2022-11-03T07:53:51;101050.56;;;14.93;71.80
17362;BME280;8798;51.938;4.348;2022-11-03T07:56:21;101049.72;;;14.92;72.22
17362;BME280;8798;51.938;4.348;2022-11-03T07:58:51;101041.75;;;14.91;71.91
17362;BME280;8798;51.938;4.348;2022-11-03T08:01:28;101039.06;;;14.91;71.98
17362;BME280;8798;51.938;4.348;2022-11-03T08:04:00;101017.78;;;14.88;72.15
17362;BME280;8798;51.938;4.348;2022-11-03T08:06:30;101009.84;;;14.86;72.03
17362;BME280;8798;51.938;4.348;2022-11-03T08:08:58;101005.28;;;14.87;71.94
17362;BME280;8798;51.938;4.348;2022-11-03T08:11:26;100996.34;;;14.86;71.76
17362;BME280;8798;51.938;4.348;2022-11-03T08:13:55;100988.38;;;14.84;72.02
17362;BME280;8798;51.938;4.348;2022-11-03T08:16:23;100987.34;;;14.86;72.09
17362;BME280;8798;51.938;4.348;2022-11-03T08:18:51;100982.13;;;14.84;72.21
17362;BME280;8798;51.938;4.348;2022-11-03T08:21:20;100976.53;;;14.86;71.97
17362;BME280;8798;51.938;4.348;2022-11-03T08:23:48;100980.09;;;14.86;72.10
17362;BME280;8798;51.938;4.348;2022-11-03T08:26:16;100976.38;;;14.87;72.04
17362;BME280;8798;51.938;4.348;2022-11-03T08:28:43;100975.34;;;14.88;72.13
17362;BME280;8798;51.938;4.348;2022-11-03T08:31:11;100965.53;;;14.87;72.22
17362;BME280;8798;51.938;4.348;2022-11-03T08:33:40;100969.91;;;14.88;72.26
17362;BME280;8798;51.938;4.348;2022-11-03T08:36:08;100984.97;;;14.91;72.29
17362;BME280;8798;51.938;4.348;2022-11-03T08:38:37;100987.13;;;14.95;72.45
17362;BME280;8798;51.938;4.348;2022-11-03T08:41:05;100990.34;;;14.99;72.36
17362;BME280;8798;51.938;4.348;2022-11-03T08:43:33;100990.50;;;14.97;72.54
17362;BME280;8798;51.938;4.348;2022-11-03T08:46:00;100978.84;;;14.97;72.40
17362;BME280;8798;51.938;4.348;2022-11-03T08:48:38;100967.19;;;14.96;72.43
17362;BME280;8798;51.938;4.348;2022-11-03T08:51:06;100968.03;;;14.97;71.94
17362;BME280;8798;51.938;4.348;2022-11-03T08:53:37;100969.72;;;14.98;72.46
17362;BME280;8798;51.938;4.348;2022-11-03T08:56:05;100967.66;;;15.00;72.41
17362;BME280;8798;51.938;4.348;2022-11-03T08:58:38;100975.63;;;15.01;72.40
17362;BME280;8798;51.938;4.348;2022-11-03T09:01:06;100979.63;;;15.05;72.35
17362;BME280;8798;51.938;4.348;2022-11-03T09:03:34;100995.53;;;15.09;72.44
17362;BME280;8798;51.938;4.348;2022-11-03T09:06:02;100983.69;;;15.10;72.42
17362;BME280;8798;51.938;4.348;2022-11-03T09:08:30;100988.06;;;15.11;72.84
17362;BME280;8798;51.938;4.348;2022-11-03T09:11:19;100978.28;;;15.10;72.40
17362;BME280;8798;51.938;4.348;2022-11-03T09:13:47;100980.81;;;15.11;72.51
17362;BME280;8798;51.938;4.348;2022-11-03T09:16:14;100974.53;;;15.11;72.77
17362;BME280;8798;51.938;4.348;2022-11-03T09:18:42;100970.63;;;15.13;72.50
17362;BME280;8798;51.938;4.348;2022-11-03T09:21:10;100968.94;;;15.12;72.33
17362;BME280;8798;51.938;4.348;2022-11-03T09:23:40;100974.19;;;15.14;72.42
17362;BME280;8798;51.938;4.348;2022-11-03T09:26:08;100974.88;;;15.16;72.63
17362;BME280;8798;51.938;4.348;2022-11-03T09:28:37;100975.34;;;15.19;72.61
17362;BME280;8798;51.938;4.348;2022-11-03T09:31:05;100990.00;;;15.25;72.40
17362;BME280;8798;51.938;4.348;2022-11-03T09:33:33;101010.28;;;15.29;72.52
17362;BME280;8798;51.938;4.348;2022-11-03T09:36:01;101006.38;;;15.32;72.43
17362;BME280;8798;51.938;4.348;2022-11-03T09:38:29;101020.38;;;15.35;72.50
17362;BME280;8798;51.938;4.348;2022-11-03T09:40:57;101020.06;;;15.38;72.55
17362;BME280;8798;51.938;4.348;2022-11-03T09:43:25;101022.56;;;15.40;72.53
17362;BME280;8798;51.938;4.348;2022-11-03T09:45:54;101034.72;;;15.44;72.46
17362;BME280;8798;51.938;4.348;2022-11-03T09:48:22;101038.94;;;15.46;71.95
17362;BME280;8798;51.938;4.348;2022-11-03T09:50:51;101036.72;;;15.50;72.46
17362;BME280;8798;51.938;4.348;2022-11-03T09:53:20;101048.03;;;15.54;72.01
17362;BME280;8798;51.938;4.348;2022-11-03T09:55:48;101047.00;;;15.55;72.24
17362;BME280;8798;51.938;4.348;2022-11-03T09:58:17;101039.72;;;15.55;72.35
17362;BME280;8798;51.938;4.348;2022-11-03T10:00:45;101048.34;;;15.59;72.07
17362;BME280;8798;51.938;4.348;2022-11-03T10:03:15;101049.19;;;15.59;72.13
17362;BME280;8798;51.938;4.348;2022-11-03T10:05:44;101033.59;;;15.61;72.15
17362;BME280;8798;51.938;4.348;2022-11-03T10:08:19;101036.78;;;15.65;72.22
17362;BME280;8798;51.938;4.348;2022-11-03T10:10:48;101053.53;;;15.68;72.17
17362;BME280;8798;51.938;4.348;2022-11-03T10:13:22;101046.09;;;15.71;72.17
17362;BME280;8798;51.938;4.348;2022-11-03T10:15:50;101043.19;;;15.72;72.12
17362;BME280;8798;51.938;4.348;2022-11-03T10:18:20;101038.81;;;15.71;72.03
17362;BME280;8798;51.938;4.348;2022-11-03T10:20:47;101032.34;;;15.72;72.03
17362;BME280;8798;51.938;4.348;2022-11-03T10:23:15;101028.63;;;15.73;71.79
17362;BME280;8798;51.938;4.348;2022-11-03T10:25:44;101019.47;;;15.74;71.94
17362;BME280;8798;51.938;4.348;2022-11-03T10:28:15;101027.22;;;15.77;71.72
17362;BME280;8798;51.938;4.348;2022-11-03T10:30:47;101018.09;;;15.78;71.62
17362;BME280;8798;51.938;4.348;2022-11-03T10:33:38;101017.06;;;15.79;71.60
17362;BME280;8798;51.938;4.348;2022-11-03T10:36:22;101010.44;;;15.82;71.62
17362;BME280;8798;51.938;4.348;2022-11-03T10:38:50;101034.94;;;15.88;71.54
17362;BME280;8798;51.938;4.348;2022-11-03T10:41:20;101054.03;;;15.95;71.65
17362;BME280;8798;51.938;4.348;2022-11-03T10:44:02;101063.28;;;16.01;71.33
17362;BME280;8798;51.938;4.348;2022-11-03T10:46:31;101060.22;;;16.04;71.50
17362;BME280;8798;51.938;4.348;2022-11-03T10:49:17;101070.50;;;16.08;71.50
17362;BME280;8798;51.938;4.348;2022-11-03T10:51:48;101085.41;;;16.12;71.34
17362;BME280;8798;51.938;4.348;2022-11-03T10:54:17;101076.22;;;16.13;71.17
17362;BME280;8798;51.938;4.348;2022-11-03T10:56:46;101068.75;;;16.16;71.09
17362;BME280;8798;51.938;4.348;2022-11-03T10:59:17;101054.38;;;16.15;70.87
17362;BME280;8798;51.938;4.348;2022-11-03T11:01:46;101042.88;;;16.13;70.80
17362;BME280;8798;51.938;4.348;2022-11-03T11:04:16;101026.78;;;16.11;71.07
17362;BME280;8798;51.938;4.348;2022-11-03T11:06:45;101001.91;;;16.08;70.75
17362;BME280;8798;51.938;4.348;2022-11-03T11:09:17;100993.78;;;16.08;71.02
17362;BME280;8798;51.938;4.348;2022-11-03T11:12:00;100996.97;;;16.11;70.48
17362;BME280;8798;51.938;4.348;2022-11-03T11:14:35;101000.16;;;16.15;70.46
17362;BME280;8798;51.938;4.348;2022-11-03T11:17:05;101011.47;;;16.19;70.43
17362;BME280;8798;51.938;4.348;2022-11-03T11:26:32;101015.56;;;16.29;70.26
17362;BME280;8798;51.938;4.348;2022-11-03T11:38:51;100992.13;;;16.37;69.82
17362;BME280;8798;51.938;4.348;2022-11-03T11:44:58;100960.63;;;16.36;69.77
17362;BME280;8798;51.938;4.348;2022-11-03T11:47:44;100921.56;;;16.30;69.97
17362;BME280;8798;51.938;4.348;2022-11-03T11:50:24;100903.78;;;16.27;69.86
17362;BME280;8798;51.938;4.348;2022-11-03T11:52:56;100902.75;;;16.28;69.55
17362;BME280;8798;51.938;4.348;2022-11-03T11:55:35;100896.94;;;16.31;69.54
17362;BME280;8798;51.938;4.348;2022-11-03T11:58:14;100898.66;;;16.32;69.46
17362;BME280;8798;51.938;4.348;2022-11-03T12:00:52;100884.06;;;16.33;69.34
17362;BME280;8798;51.938;4.348;2022-11-03T12:03:25;100882.19;;;16.34;69.26
17362;BME280;8798;51.938;4.348;2022-11-03T12:05:54;100886.38;;;16.37;69.45
17362;BME280;8798;51.938;4.348;2022-11-03T12:08:26;100887.88;;;16.39;69.30
17362;BME280;8798;51.938;4.348;2022-11-03T12:10:57;100876.19;;;16.39;69.23
17362;BME280;8798;51.938;4.348;2022-11-03T12:13:44;100868.88;;;16.39;69.23
17362;BME280;8798;51.938;4.348;2022-11-03T12:16:26;100858.69;;;16.41;68.89
17362;BME280;8798;51.938;4.348;2022-11-03T12:18:54;100862.25;;;16.42;68.87
17362;BME280;8798;51.938;4.348;2022-11-03T12:21:45;100857.47;;;16.44;69.02
17362;BME280;8798;51.938;4.348;2022-11-03T12:24:33;100843.91;;;16.44;69.14
17362;BME280;8798;51.938;4.348;2022-11-03T12:27:14;100848.34;;;16.45;68.80
17362;BME280;8798;51.938;4.348;2022-11-03T12:29:44;100842.53;;;16.48;68.80
17362;BME280;8798;51.938;4.348;2022-11-03T12:32:12;100850.09;;;16.52;68.78
17362;BME280;8798;51.938;4.348;2022-11-03T12:35:00;100890.25;;;16.64;68.92
17362;BME280;8798;51.938;4.348;2022-11-03T12:37:27;100922.34;;;16.75;68.75
17362;BME280;8798;51.938;4.348;2022-11-03T12:39:55;100969.69;;;16.87;68.55
17362;BME280;8798;51.938;4.348;2022-11-03T12:42:23;101004.28;;;17.00;68.69
17362;BME280;8798;51.938;4.348;2022-11-03T12:44:52;101030.47;;;17.08;68.43
17362;BME280;8798;51.938;4.348;2022-11-03T12:47:21;101045.81;;;17.15;68.63
17362;BME280;8798;51.938;4.348;2022-11-03T12:49:49;101037.47;;;17.17;68.48
17362;BME280;8798;51.938;4.348;2022-11-03T12:52:16;101035.41;;;17.19;68.19
17362;BME280;8798;51.938;4.348;2022-11-03T12:54:44;101026.22;;;17.20;68.29
17362;BME280;8798;51.938;4.348;2022-11-03T12:57:12;101013.50;;;17.20;68.23
17362;BME280;8798;51.938;4.348;2022-11-03T12:59:40;100999.09;;;17.20;68.21
17362;BME280;8798;51.938;4.348;2022-11-03T13:02:09;100994.31;;;17.22;68.22
17362;BME280;8798;51.938;4.348;2022-11-03T13:04:37;100981.38;;;17.24;68.26
17362;BME280;8798;51.938;4.348;2022-11-03T13:07:05;100987.66;;;17.25;68.28
17362;BME280;8798;51.938;4.348;2022-11-03T13:09:34;100955.25;;;17.23;67.94
17362;BME280;8798;51.938;4.348;2022-11-03T13:12:02;100944.38;;;17.23;67.90
17362;BME280;8798;51.938;4.348;2022-11-03T13:14:48;100946.53;;;17.28;67.86
17362;BME280;8798;51.938;4.348;2022-11-03T13:17:17;100953.25;;;17.32;67.57
17362;BME280;8798;51.938;4.348;2022-11-03T13:19:44;100946.78;;;17.33;67.38
17362;BME280;8798;51.938;4.348;2022-11-03T13:22:12;100946.59;;;17.34;67.67
17362;BME280;8798;51.938;4.348;2022-11-03T13:24:40;100944.31;;;17.38;67.59
17362;BME280;8798;51.938;4.348;2022-11-03T13:27:08;100930.56;;;17.39;67.68
17362;BME280;8798;51.938;4.348;2022-11-03T13:29:36;100925.78;;;17.41;67.27
17362;BME280;8798;51.938;4.348;2022-11-03T13:32:04;100921.19;;;17.42;67.38
17362;BME280;8798;51.938;4.348;2022-11-03T13:34:33;100896.75;;;17.42;67.07
17362;BME280;8798;51.938;4.348;2022-11-03T13:37:01;100888.59;;;17.42;67.10
17362;BME280;8798;51.938;4.348;2022-11-03T13:39:30;100866.44;;;17.38;67.32
17362;BME280;8798;51.938;4.348;2022-11-03T13:41:58;100857.41;;;17.38;67.14
17362;BME280;8798;51.938;4.348;2022-11-03T13:44:26;100850.75;;;17.40;66.82